Carterhouse, United Kingdom
Current Conditions -  °F | °C
As of 9:50 PM on Monday 26 Jan 2015 (Local Time) from EGOM Reporting Station
Haze Haze  
Wind Chill: 26°   Ceiling: Unl
Heat Index: 34°   Visibility: 5mi
Dew Point: 34°   Wind: 9mph
Humidity: 100%   Direction: 250°WSW
Pressure: 30.21"   Gusts: NA
Location:  55.37°N, 2.52°W
Report Text: EGOM 262150Z AUTO 25008KT 8000 BR FEW005/// SCT028/// 01/01 Q1023
Loading
Personal Weather Stations






























Interactive Weather Map New forecast layout! Learn more

10-Day Weather Forecast

Advertisements
Track Severe Weather on mobile